Manaus, Brazil
Current Conditions -  °F | °C
As of 8:00 PM on Saturday 25 Oct 2014 (Local Time) from SBMN Reporting Station
Broken Clouds Broken Clouds  
Wind Chill: 77°   Ceiling: 10000
Heat Index: 78°   Visibility: 6mi
Dew Point: 72°   Wind: 0mph
Humidity: 83%   Direction: NA
Pressure: 29.83"   Gusts: NA
Location:  3.12°S, 60.02°W
Report Text: SBMN 260000Z 00000KT 9999 FEW020 BKN100 25/22 Q1010
Loading
Personal Weather Stations






























Interactive Weather Map
Tropical Storm Tracking
New forecast layout! Learn more

10-Day Weather Forecast

Advertisements
Track Severe Weather on mobile